Terminal Aerodrome Forecast
Issued by NWS

Home | Current Version | Previous Version | Text Only | Print | Product List | Glossary Off
Versions: 1 2 3 4 5 6 7 8 9 10 11 12 13 14

000
FTUS45 KGGW 261123 CCA
TAFOLF
TAF COR
KOLF 261123Z 2612/2712 VRB05KT P6SM SCT020
      TEMPO 2612/2614 1SM BR BKN020
     FM261400 29006KT P6SM -SHRA OVC020
     FM261600 30006KT P6SM -SHRA OVC020
     FM261800 32008KT P6SM -SHRA OVC020
     FM270000 36007KT P6SM BKN050=

USA.gov is the U.S. government's official web portal to all federal, state and local government web resources and services.